Time;durP1;ratioP1;P1;durP2;ratioP2;P2;SDS_P1;SDS_P2;PMS_P1;PMS_P2;Temp;Humidity;BMP_temperature;BMP_pressure;BME280_temperature;BME280_humidity;BME280_pressure;Samples;Min_cycle;Max_cycle;Signal;HPM_P1;HPM_P2
2022/07/31 00:01:53;;;;;;;9.15;2.10;;;;;;;41.42;28.56;100887.03;5090837;28;20039;-62
2022/07/31 00:04:24;;;;;;;9.30;2.15;;;;;;;40.54;29.94;100877.25;5078947;28;20249;-64
2022/07/31 00:06:51;;;;;;;7.55;2.40;;;;;;;41.47;28.69;100880.69;5083977;28;20032;-64
2022/07/31 00:09:18;;;;;;;7.10;2.05;;;;;;;41.38;28.66;100880.69;5086532;28;20039;-64
2022/07/31 00:11:45;;;;;;;7.97;2.22;;;;;;;40.66;29.59;100870.66;5076788;28;20391;-64
2022/07/31 00:14:12;;;;;;;16.38;2.40;;;;;;;41.53;28.16;100875.94;5060910;28;20121;-64
2022/07/31 00:16:38;;;;;;;46.58;3.50;;;;;;;41.33;28.39;100884.19;5086888;28;20048;-64
2022/07/31 00:19:05;;;;;;;47.63;3.20;;;;;;;41.23;28.07;100874.78;5084717;28;20020;-64
2022/07/31 00:21:32;;;;;;;10.50;2.25;;;;;;;41.29;28.75;100877.81;5078340;28;20509;-64
2022/07/31 00:23:58;;;;;;;10.05;2.28;;;;;;;40.45;29.94;100875.97;5090452;28;20098;-64
2022/07/31 00:26:25;;;;;;;8.85;2.20;;;;;;;40.54;29.64;100868.72;5079201;28;20024;-64
2022/07/31 00:28:52;;;;;;;12.65;2.40;;;;;;;40.81;29.10;100865.19;5083488;28;20028;-64
2022/07/31 00:31:19;;;;;;;10.93;2.38;;;;;;;40.86;29.10;100868.22;5085244;28;20398;-64
2022/07/31 00:33:45;;;;;;;18.35;2.90;;;;;;;40.86;28.95;100871.06;5077361;28;20113;-64
2022/07/31 00:36:13;;;;;;;12.60;2.63;;;;;;;40.26;30.35;100857.19;5059538;28;20050;-64
2022/07/31 00:38:40;;;;;;;10.10;2.60;;;;;;;39.21;31.96;100867.09;5082886;28;20023;-64
2022/07/31 00:41:06;;;;;;;12.73;2.70;;;;;;;39.88;30.57;100855.34;5082543;28;20028;-64
2022/07/31 00:43:33;;;;;;;11.57;2.47;;;;;;;40.38;29.90;100859.13;5088244;28;20061;-64
2022/07/31 00:46:01;;;;;;;16.52;2.90;;;;;;;40.38;29.82;100850.56;5076880;28;20033;-64
2022/07/31 00:48:27;;;;;;;16.20;2.70;;;;;;;39.94;30.23;100854.75;5088123;28;20024;-64
2022/07/31 00:50:55;;;;;;;22.35;3.20;;;;;;;40.23;29.96;100848.78;5098254;28;20032;-63
2022/07/31 00:53:21;;;;;;;15.82;2.95;;;;;;;39.90;30.45;100854.09;5079023;28;20035;-63
2022/07/31 00:55:48;;;;;;;13.75;2.70;;;;;;;39.62;31.27;100862.44;5088805;28;20115;-63
2022/07/31 00:58:15;;;;;;;23.35;2.70;;;;;;;39.36;31.46;100863.78;5077005;28;20020;-64
2022/07/31 01:00:41;;;;;;;8.18;2.20;;;;;;;39.41;30.57;100854.63;5086040;28;20036;-63
2022/07/31 01:03:08;;;;;;;16.35;2.58;;;;;;;40.07;30.03;100864.03;5084534;28;20028;-64
2022/07/31 01:05:35;;;;;;;7.85;2.70;;;;;;;40.04;29.80;100853.56;5076841;28;20041;-63
2022/07/31 01:08:01;;;;;;;11.88;2.83;;;;;;;38.88;31.30;100872.25;5078643;28;20033;-64
2022/07/31 01:10:43;;;;;;;15.65;2.47;;;;;;;38.70;31.97;100872.06;5077334;28;20174;-63
2022/07/31 01:13:19;;;;;;;13.27;2.70;;;;;;;38.87;31.51;100872.72;5081590;28;20098;-62
2022/07/31 01:15:47;;;;;;;9.60;2.47;;;;;;;38.91;31.59;100879.06;5089628;28;20045;-63
2022/07/31 01:18:16;;;;;;;21.40;3.25;;;;;;;38.34;32.41;100875.19;5059020;28;20016;-64
2022/07/31 01:20:47;;;;;;;15.57;2.90;;;;;;;38.60;32.08;100873.97;5083545;28;20375;-64
2022/07/31 01:23:28;;;;;;;22.83;3.40;;;;;;;38.57;31.67;100880.53;5084541;28;20516;-63
2022/07/31 01:26:41;;;;;;;16.30;2.88;;;;;;;38.39;31.49;100885.97;5061035;28;20069;-64
2022/07/31 01:29:18;;;;;;;11.30;2.83;;;;;;;38.21;32.67;100889.38;5080347;28;20482;-63
2022/07/31 01:32:10;;;;;;;18.45;3.15;;;;;;;38.16;32.80;100891.94;5087630;28;20040;-63
2022/07/31 01:34:51;;;;;;;19.85;3.80;;;;;;;37.83;32.37;100894.13;5082226;28;20115;-63
2022/07/31 01:37:29;;;;;;;14.57;2.95;;;;;;;37.50;32.99;100906.31;5058706;28;20033;-63
2022/07/31 01:40:12;;;;;;;14.15;3.13;;;;;;;37.32;33.08;100899.53;5085824;28;20035;-63
2022/07/31 01:42:43;;;;;;;18.98;3.33;;;;;;;37.03;33.67;100900.25;5079909;28;20024;-63
2022/07/31 01:45:15;;;;;;;20.20;3.22;;;;;;;36.90;34.13;100905.81;5079697;28;20066;-64
2022/07/31 01:47:43;;;;;;;19.10;3.20;;;;;;;36.53;34.07;100894.94;5088501;28;20036;-63
2022/07/31 01:50:10;;;;;;;23.30;3.58;;;;;;;36.40;34.90;100908.16;5075533;28;20054;-64
2022/07/31 01:52:41;;;;;;;37.20;4.05;;;;;;;36.13;39.53;100906.28;5085466;28;20036;-64
2022/07/31 01:55:09;;;;;;;28.38;4.10;;;;;;;36.18;37.36;100902.94;5082179;28;20073;-64
2022/07/31 01:57:40;;;;;;;29.35;3.58;;;;;;;36.15;37.47;100909.47;5092145;28;20047;-63
2022/07/31 02:00:09;;;;;;;18.00;3.30;;;;;;;36.10;37.00;100907.16;5087544;28;20060;-63
2022/07/31 02:02:46;;;;;;;17.83;3.20;;;;;;;35.96;36.97;100913.13;5068205;28;20452;-64
2022/07/31 02:05:15;;;;;;;20.67;3.65;;;;;;;35.88;37.59;100912.44;5062768;28;20029;-61
2022/07/31 02:07:44;;;;;;;25.67;3.92;;;;;;;35.93;36.97;100908.31;5059465;28;20052;-61
2022/07/31 02:10:14;;;;;;;22.90;3.55;;;;;;;35.85;36.31;100912.50;5062596;28;20041;-61
2022/07/31 02:12:43;;;;;;;24.45;3.65;;;;;;;35.88;38.03;100915.28;5059168;28;20032;-61
2022/07/31 02:15:13;;;;;;;21.40;3.42;;;;;;;35.70;37.53;100911.97;5054211;28;20394;-63
2022/07/31 02:17:45;;;;;;;23.92;3.75;;;;;;;35.60;38.87;100913.78;5071472;28;20033;-63
2022/07/31 02:20:32;;;;;;;22.35;4.50;;;;;;;35.43;39.04;100921.34;5056276;28;20448;-63
2022/07/31 02:23:00;;;;;;;20.05;3.53;;;;;;;35.38;39.38;100918.22;5060859;28;20036;-63
2022/07/31 02:25:28;;;;;;;33.53;4.18;;;;;;;35.23;39.57;100922.50;5056094;28;20471;-63
2022/07/31 02:27:57;;;;;;;22.45;3.63;;;;;;;35.16;39.42;100923.38;5059770;28;20037;-61
2022/07/31 02:30:28;;;;;;;20.55;3.88;;;;;;;35.05;39.44;100920.75;5058501;28;20104;-63
2022/07/31 02:32:56;;;;;;;19.73;3.88;;;;;;;34.93;39.54;100929.81;5062369;28;20479;-63
2022/07/31 02:35:24;;;;;;;29.73;4.13;;;;;;;34.80;40.11;100929.56;5052707;28;20032;-62
2022/07/31 02:37:54;;;;;;;33.53;3.53;;;;;;;34.73;40.88;100935.31;5055664;28;20028;-60
2022/07/31 02:40:23;;;;;;;21.45;4.00;;;;;;;34.69;40.43;100934.59;5059010;28;20029;-62
2022/07/31 02:42:51;;;;;;;18.77;4.00;;;;;;;34.59;41.57;100934.72;5079565;28;20056;-62
2022/07/31 02:45:19;;;;;;;19.38;3.80;;;;;;;34.46;40.88;100932.47;5054599;28;20025;-61
2022/07/31 02:47:47;;;;;;;23.92;4.50;;;;;;;34.47;41.66;100939.75;5059987;28;20563;-62
2022/07/31 02:50:17;;;;;;;20.10;3.83;;;;;;;34.36;41.64;100941.88;5062883;28;20075;-61
2022/07/31 02:52:45;;;;;;;18.67;4.32;;;;;;;34.31;41.32;100945.16;5058483;28;20072;-62
2022/07/31 02:55:13;;;;;;;25.42;4.32;;;;;;;34.35;40.68;100945.94;5067100;28;20067;-60
2022/07/31 02:57:40;;;;;;;24.02;4.22;;;;;;;34.24;40.93;100948.03;5058570;28;20025;-61
2022/07/31 03:00:22;;;;;;;22.25;4.10;;;;;;;34.15;41.02;100945.75;5061538;28;20429;-60
2022/07/31 03:02:54;;;;;;;21.30;3.78;;;;;;;34.21;41.09;100946.06;5062286;28;20490;-61
2022/07/31 03:05:23;;;;;;;19.92;3.70;;;;;;;34.16;41.65;100946.53;5056879;28;20123;-61
2022/07/31 03:07:50;;;;;;;22.42;3.63;;;;;;;34.01;41.97;100947.94;5061433;28;20057;-60
2022/07/31 03:10:17;;;;;;;160.77;8.68;;;;;;;33.97;42.24;100947.19;5071210;28;20509;-60
2022/07/31 03:13:04;;;;;;;130.07;10.75;;;;;;;33.90;42.25;100951.66;5079742;28;20067;-61
2022/07/31 03:15:32;;;;;;;25.13;4.18;;;;;;;33.92;42.71;100951.22;5060462;28;20106;-60
2022/07/31 03:18:00;;;;;;;26.80;3.90;;;;;;;33.89;42.41;100961.34;5054623;28;20041;-59
2022/07/31 03:20:38;;;;;;;21.65;3.72;;;;;;;33.82;43.10;100955.75;5062462;28;20117;-60
2022/07/31 03:23:06;;;;;;;23.05;4.03;;;;;;;33.72;43.19;100958.66;5063637;28;20120;-61
2022/07/31 03:25:41;;;;;;;22.85;3.85;;;;;;;33.64;43.46;100960.75;5062095;28;20040;-61
2022/07/31 03:28:08;;;;;;;21.95;3.63;;;;;;;33.51;43.70;100960.47;5065239;28;20037;-60
2022/07/31 03:30:34;;;;;;;23.48;4.07;;;;;;;33.56;44.09;100962.03;5064464;28;20032;-65
2022/07/31 03:33:02;;;;;;;21.80;3.92;;;;;;;33.52;44.56;100970.53;5062915;28;20036;-62
2022/07/31 03:35:30;;;;;;;28.10;4.50;;;;;;;33.39;44.80;100974.25;5065888;28;20056;-62
2022/07/31 03:37:57;;;;;;;24.85;4.30;;;;;;;33.34;45.50;100984.75;5064930;28;20036;-60
2022/07/31 03:40:25;;;;;;;16.45;3.80;;;;;;;33.34;45.79;100984.75;5060763;28;20017;-61
2022/07/31 03:42:54;;;;;;;18.75;4.22;;;;;;;33.39;46.08;100988.34;5064603;28;20120;-61
2022/07/31 03:45:21;;;;;;;23.60;4.30;;;;;;;33.37;46.42;100985.94;5059688;28;20021;-61
2022/07/31 03:47:49;;;;;;;17.83;3.60;;;;;;;33.20;45.48;100984.84;5061181;28;20075;-62
2022/07/31 03:50:16;;;;;;;12.98;3.75;;;;;;;33.19;47.03;101002.16;5060992;28;20025;-62
2022/07/31 03:52:46;;;;;;;21.52;4.30;;;;;;;33.26;47.29;101010.56;5062565;28;20041;-62
2022/07/31 03:55:14;;;;;;;20.85;4.68;;;;;;;33.23;47.05;101015.03;5055233;28;20037;-61
2022/07/31 03:57:42;;;;;;;18.50;5.03;;;;;;;33.22;47.20;101019.06;5053967;28;20029;-60
2022/07/31 04:00:09;;;;;;;35.28;5.20;;;;;;;33.23;47.37;101031.94;5057663;28;20063;-65
2022/07/31 04:02:43;;;;;;;27.30;5.60;;;;;;;33.12;47.42;101028.38;5065599;28;20076;-67
2022/07/31 04:05:42;;;;;;;23.33;5.13;;;;;;;33.16;47.66;101042.41;5065976;28;20055;-63
2022/07/31 04:08:09;;;;;;;23.55;5.45;;;;;;;33.15;48.11;101052.88;5063835;28;20112;-64
2022/07/31 04:10:36;;;;;;;23.90;4.65;;;;;;;33.08;48.11;101057.78;5066512;28;20594;-65
2022/07/31 04:13:05;;;;;;;22.40;4.88;;;;;;;33.08;47.10;101060.59;5068054;28;20138;-65
2022/07/31 04:15:33;;;;;;;21.00;4.60;;;;;;;33.09;47.07;101060.19;5060608;28;20076;-64
2022/07/31 04:17:59;;;;;;;21.67;4.38;;;;;;;33.04;47.50;101060.63;5057576;28;20068;-63
2022/07/31 04:20:36;;;;;;;16.63;3.55;;;;;;;32.95;47.22;101072.31;5049109;28;20371;-64
2022/07/31 04:23:04;;;;;;;28.58;3.90;;;;;;;32.93;47.61;101076.75;5062808;28;20033;-62
2022/07/31 04:25:52;;;;;;;25.48;3.88;;;;;;;32.85;47.70;101075.97;5064852;28;20047;-66
2022/07/31 04:28:32;;;;;;;24.02;4.53;;;;;;;32.85;47.67;101075.16;5060965;28;20091;-62
2022/07/31 04:30:59;;;;;;;21.75;4.93;;;;;;;32.74;47.39;101073.19;5049720;28;20040;-66
2022/07/31 04:33:26;;;;;;;23.52;5.35;;;;;;;32.72;47.52;101078.41;5057776;28;20051;-63
2022/07/31 04:35:56;;;;;;;21.52;5.85;;;;;;;32.71;47.82;101073.19;5065353;28;20040;-63
2022/07/31 04:38:22;;;;;;;22.50;6.70;;;;;;;32.70;47.55;101077.22;5067190;28;20064;-63
2022/07/31 04:40:49;;;;;;;27.45;7.95;;;;;;;32.53;48.35;101078.88;5067056;28;20036;-63
2022/07/31 04:43:19;;;;;;;24.13;7.65;;;;;;;32.52;48.64;101084.94;5062039;28;20043;-63
2022/07/31 04:45:46;;;;;;;18.30;6.68;;;;;;;32.44;49.24;101086.94;5064335;28;20082;-66
2022/07/31 04:48:13;;;;;;;28.20;7.28;;;;;;;32.43;48.28;101088.16;5068035;28;20108;-64
2022/07/31 04:50:41;;;;;;;24.75;6.95;;;;;;;32.41;48.93;101082.13;5064256;28;20509;-63
2022/07/31 04:53:07;;;;;;;23.15;7.28;;;;;;;32.50;49.15;101090.97;5064955;28;20497;-62
2022/07/31 04:55:38;;;;;;;29.45;7.28;;;;;;;32.44;49.27;101084.13;5051098;28;20068;-61
2022/07/31 04:58:06;;;;;;;24.15;7.78;;;;;;;32.54;50.03;101090.94;5063975;28;20043;-64
2022/07/31 05:00:32;;;;;;;25.88;8.50;;;;;;;32.41;50.54;101094.19;5065302;28;20036;-64
2022/07/31 05:02:59;;;;;;;20.30;6.43;;;;;;;32.38;51.01;101097.00;5054959;28;20037;-62
2022/07/31 05:05:26;;;;;;;16.45;6.00;;;;;;;32.26;49.92;101091.75;5074667;28;20029;-64
2022/07/31 05:07:53;;;;;;;15.85;5.63;;;;;;;32.37;51.19;101092.59;5067342;28;20494;-65
2022/07/31 05:13:09;;;;;;;16.70;5.55;;;;;;;32.31;51.91;101099.81;5080523;28;20031;-64
2022/07/31 05:15:36;;;;;;;17.17;4.60;;;;;;;32.27;51.23;101087.78;5082026;28;20496;-64
2022/07/31 05:18:06;;;;;;;17.65;5.15;;;;;;;32.23;51.40;101095.38;5082323;28;20508;-64
2022/07/31 05:21:08;;;;;;;15.77;4.45;;;;;;;32.21;50.95;101098.63;5038521;28;20041;-61
2022/07/31 05:23:50;;;;;;;18.73;5.18;;;;;;;32.22;50.24;101100.22;5076271;28;20119;-63
2022/07/31 05:26:30;;;;;;;16.00;6.03;;;;;;;32.28;50.65;101106.25;5081271;28;20169;-64
2022/07/31 05:28:59;;;;;;;13.95;5.50;;;;;;;32.10;49.76;101100.63;5081599;28;20487;-64
2022/07/31 05:31:27;;;;;;;20.48;6.18;;;;;;;32.01;50.34;101101.03;5081023;28;20024;-62
2022/07/31 05:33:54;;;;;;;21.83;5.88;;;;;;;32.06;48.50;101106.25;5081558;28;20042;-62
2022/07/31 05:36:20;;;;;;;25.77;6.30;;;;;;;32.02;47.95;101108.28;5095836;28;20020;-60
2022/07/31 05:38:48;;;;;;;18.33;5.32;;;;;;;31.99;47.44;101106.28;5079367;28;20040;-62
2022/07/31 05:41:23;;;;;;;15.02;4.97;;;;;;;31.95;45.91;101113.06;5074067;28;20427;-60
2022/07/31 05:44:02;;;;;;;12.48;4.30;;;;;;;32.01;45.21;101106.66;5077850;28;20125;-61
2022/07/31 05:46:36;;;;;;;10.80;3.25;;;;;;;31.99;44.93;101106.28;5065966;28;20040;-61
2022/07/31 05:49:04;;;;;;;21.05;4.15;;;;;;;31.98;44.40;101101.84;5075983;28;20036;-62
2022/07/31 05:51:36;;;;;;;10.95;3.47;;;;;;;31.97;43.74;101111.50;5072064;28;20571;-62
2022/07/31 05:54:03;;;;;;;10.70;3.53;;;;;;;31.96;43.89;101107.06;5077809;28;20123;-64
2022/07/31 05:56:48;;;;;;;9.85;2.88;;;;;;;31.96;42.51;101111.88;5083554;28;20044;-61
2022/07/31 05:59:18;;;;;;;13.23;3.40;;;;;;;32.03;42.34;101112.69;5081824;28;20032;-62
2022/07/31 06:01:45;;;;;;;14.77;3.60;;;;;;;32.00;42.68;101119.13;5081077;28;20031;-61
2022/07/31 06:04:12;;;;;;;10.48;3.70;;;;;;;31.90;42.70;101114.28;5085843;28;20024;-63
2022/07/31 06:06:41;;;;;;;17.40;4.20;;;;;;;31.84;41.63;101105.47;5079657;28;20024;-61
2022/07/31 06:09:08;;;;;;;12.68;3.58;;;;;;;31.81;42.11;101103.44;5082589;28;20037;-61
2022/07/31 06:11:38;;;;;;;11.77;4.15;;;;;;;31.80;41.63;101112.28;5078474;28;20033;-63
2022/07/31 06:14:07;;;;;;;13.18;3.33;;;;;;;31.78;40.66;101106.28;5081888;28;20083;-62
2022/07/31 06:17:07;;;;;;;12.38;3.95;;;;;;;31.81;40.84;101097.84;5077607;28;20023;-61
2022/07/31 06:19:35;;;;;;;13.93;4.40;;;;;;;31.71;40.81;101103.41;5077767;28;20035;-62
2022/07/31 06:22:02;;;;;;;10.70;3.50;;;;;;;31.76;40.11;101097.41;5062912;28;20048;-64
2022/07/31 06:24:33;;;;;;;7.45;2.90;;;;;;;31.76;39.97;101108.66;5077445;28;20025;-60
2022/07/31 06:27:02;;;;;;;7.32;2.70;;;;;;;31.76;40.06;101098.22;5077400;28;20502;-68
2022/07/31 06:29:32;;;;;;;13.52;3.42;;;;;;;31.71;40.01;101109.03;5061335;28;20020;-62
2022/07/31 06:31:59;;;;;;;9.00;2.95;;;;;;;31.69;39.88;101100.19;5080439;28;20043;-63
2022/07/31 06:34:26;;;;;;;13.27;2.80;;;;;;;31.53;39.88;101106.19;5081725;28;20031;-61
2022/07/31 06:36:53;;;;;;;11.60;2.60;;;;;;;31.64;39.03;101104.22;5080709;28;20493;-65
2022/07/31 06:39:21;;;;;;;12.63;2.75;;;;;;;31.58;39.47;101109.41;5080237;28;20020;-62
2022/07/31 06:42:07;;;;;;;11.95;2.60;;;;;;;31.45;39.60;101115.81;5080530;28;21267;-70
2022/07/31 06:44:34;;;;;;;7.60;2.75;;;;;;;31.28;40.38;101123.00;5082619;28;20119;-64
2022/07/31 06:47:22;;;;;;;16.92;3.00;;;;;;;31.19;40.83;101122.56;5086223;28;20112;-64
2022/07/31 06:50:07;;;;;;;17.65;2.75;;;;;;;31.20;40.79;101118.53;5079695;28;20117;-66
2022/07/31 06:52:38;;;;;;;8.20;2.35;;;;;;;31.15;41.05;101116.09;5076888;28;20040;-62
2022/07/31 06:55:06;;;;;;;9.07;2.58;;;;;;;31.22;40.53;101118.94;5079295;28;20024;-62
2022/07/31 06:57:34;;;;;;;10.77;2.30;;;;;;;31.15;41.08;101110.47;5083565;28;20116;-61
2022/07/31 07:00:01;;;;;;;25.27;3.47;;;;;;;31.19;40.27;101114.94;5084125;28;20114;-62
2022/07/31 07:02:29;;;;;;;20.38;2.47;;;;;;;31.27;40.53;101115.78;5084910;28;20468;-63
2022/07/31 07:04:55;;;;;;;9.02;2.20;;;;;;;31.13;40.82;101110.88;5082607;28;20028;-61
2022/07/31 07:07:22;;;;;;;10.00;2.80;;;;;;;31.06;41.11;101112.84;5082509;28;20035;-62
2022/07/31 07:09:51;;;;;;;7.78;2.90;;;;;;;31.07;41.31;101108.84;5084284;28;20040;-62
2022/07/31 07:12:37;;;;;;;7.53;2.75;;;;;;;31.05;41.42;101108.44;5082766;28;20032;-62
2022/07/31 07:15:05;;;;;;;8.55;3.05;;;;;;;31.07;41.05;101098.44;5085681;28;20024;-62
2022/07/31 07:17:31;;;;;;;11.98;3.15;;;;;;;31.04;40.71;101110.44;5084535;28;20075;-62
2022/07/31 07:19:59;;;;;;;26.05;3.42;;;;;;;31.06;40.28;101104.41;5085617;28;20039;-63
2022/07/31 07:22:26;;;;;;;44.60;5.53;;;;;;;31.07;40.56;101111.66;5080537;28;20042;-63
2022/07/31 07:24:53;;;;;;;19.75;2.95;;;;;;;31.02;40.52;101104.41;5083568;28;20037;-64
2022/07/31 07:27:22;;;;;;;99.47;11.07;;;;;;;31.14;44.26;101114.50;5083529;28;20089;-64
2022/07/31 07:29:49;;;;;;;6.03;2.40;;;;;;;31.12;41.48;101114.88;5081081;28;20064;-64
2022/07/31 07:32:16;;;;;;;13.82;2.97;;;;;;;31.06;41.42;101115.66;5090127;28;20455;-61
2022/07/31 07:34:43;;;;;;;8.90;2.40;;;;;;;30.93;41.35;101104.78;5087015;28;20555;-62
2022/07/31 07:37:22;;;;;;;10.15;2.65;;;;;;;30.94;41.51;101109.19;5079573;28;20032;-61
2022/07/31 07:39:48;;;;;;;6.93;2.25;;;;;;;30.93;40.43;101113.22;5089969;28;20034;-61
2022/07/31 07:42:15;;;;;;;8.52;2.60;;;;;;;30.93;40.63;101107.59;5076417;28;20032;-61
2022/07/31 07:44:42;;;;;;;9.13;2.60;;;;;;;30.85;41.35;101105.13;5085089;28;20060;-62
2022/07/31 07:47:08;;;;;;;15.63;3.00;;;;;;;30.70;41.17;101112.69;5084067;28;20042;-61
2022/07/31 07:49:35;;;;;;;6.10;1.88;;;;;;;30.86;39.79;101112.34;5077460;28;20059;-61
2022/07/31 07:52:22;;;;;;;13.35;2.20;;;;;;;30.88;39.94;101102.38;5078470;28;20115;-65
2022/07/31 07:55:18;;;;;;;8.82;2.40;;;;;;;30.87;40.48;101100.72;5069928;28;20058;-62
2022/07/31 07:58:14;;;;;;;12.02;2.92;;;;;;;30.79;40.39;101101.09;5082367;28;20043;-61
2022/07/31 08:01:09;;;;;;;6.95;2.42;;;;;;;30.80;40.72;101095.09;5022023;28;20128;-62
2022/07/31 08:03:40;;;;;;;10.27;2.92;;;;;;;30.74;41.68;101096.69;5081916;28;20135;-60
2022/07/31 08:06:06;;;;;;;13.63;2.72;;;;;;;30.72;40.84;101084.25;5090102;28;20035;-61
2022/07/31 08:08:33;;;;;;;9.00;2.38;;;;;;;30.64;41.63;101089.81;5086586;28;20028;-62
2022/07/31 08:11:09;;;;;;;6.93;2.55;;;;;;;30.55;42.25;101091.34;5078099;28;20033;-59
2022/07/31 08:13:53;;;;;;;7.57;2.72;;;;;;;30.57;42.65;101105.78;5079340;28;20063;-60
2022/07/31 08:16:31;;;;;;;9.93;2.95;;;;;;;30.50;42.48;101100.09;5080399;28;20047;-60
2022/07/31 08:18:59;;;;;;;9.98;2.67;;;;;;;30.46;42.79;101111.31;5084412;28;20029;-62
2022/07/31 08:21:27;;;;;;;9.73;2.65;;;;;;;30.37;43.41;101108.88;5082993;28;20021;-61
2022/07/31 08:23:54;;;;;;;9.02;2.40;;;;;;;30.29;43.35;101109.19;5083859;28;20035;-60
2022/07/31 08:26:21;;;;;;;14.65;2.42;;;;;;;30.21;44.77;101111.16;5084776;28;20016;-59
2022/07/31 08:28:48;;;;;;;9.13;2.22;;;;;;;30.26;44.45;101124.00;5080277;28;20103;-63
2022/07/31 08:31:15;;;;;;;8.73;2.40;;;;;;;30.17;44.37;101115.94;5078961;28;20030;-62
2022/07/31 08:33:59;;;;;;;10.37;2.13;;;;;;;30.14;44.77;101111.09;5067704;28;20032;-59
2022/07/31 08:36:26;;;;;;;13.55;2.45;;;;;;;30.08;45.17;101109.84;5082452;28;20090;-60
2022/07/31 08:38:52;;;;;;;10.88;2.10;;;;;;;29.96;45.35;101104.50;5081656;28;20024;-60
2022/07/31 08:41:39;;;;;;;10.52;2.28;;;;;;;29.91;45.55;101107.66;5066830;28;20047;-61
2022/07/31 08:44:09;;;;;;;9.55;2.17;;;;;;;29.85;45.88;101098.81;5083057;28;20035;-60
2022/07/31 08:46:38;;;;;;;9.18;2.22;;;;;;;29.85;46.15;101098.03;5101812;28;20387;-58
2022/07/31 08:49:08;;;;;;;25.35;2.85;;;;;;;29.84;46.35;101093.59;5080336;28;20020;-58
2022/07/31 08:51:37;;;;;;;113.07;8.48;;;;;;;29.79;47.06;101101.16;5069821;28;20078;-57
2022/07/31 08:54:25;;;;;;;10.27;2.38;;;;;;;29.81;46.45;101085.97;5063871;28;20093;-58
2022/07/31 08:56:52;;;;;;;8.15;2.22;;;;;;;29.72;46.63;101089.09;5083349;28;20029;-59
2022/07/31 08:59:20;;;;;;;11.65;2.97;;;;;;;29.62;47.18;101089.78;5091420;28;20502;-58
2022/07/31 09:01:47;;;;;;;14.45;2.72;;;;;;;29.65;47.26;101083.44;5066135;28;20044;-59
2022/07/31 09:04:14;;;;;;;12.00;2.35;;;;;;;29.73;46.84;101097.09;5098259;28;20016;-61
2022/07/31 09:06:41;;;;;;;9.20;2.03;;;;;;;29.63;47.83;101081.03;5075769;28;20032;-58
2022/07/31 09:09:08;;;;;;;7.35;2.28;;;;;;;29.68;48.04;101094.66;5079668;28;20044;-59
2022/07/31 09:11:46;;;;;;;13.50;2.55;;;;;;;29.73;48.17;101093.50;5072085;28;20039;-62
2022/07/31 09:14:35;;;;;;;12.15;2.28;;;;;;;29.72;47.95;101087.09;5060433;28;20440;-60
2022/07/31 09:17:08;;;;;;;15.13;2.55;;;;;;;29.65;48.57;101083.44;5076642;28;20046;-59
2022/07/31 09:19:40;;;;;;;10.27;2.50;;;;;;;29.61;48.85;101083.38;5078862;28;20078;-60
2022/07/31 09:22:24;;;;;;;5.90;2.17;;;;;;;29.58;49.38;101083.34;5075974;28;20167;-60
2022/07/31 09:24:51;;;;;;;13.35;2.65;;;;;;;29.47;49.67;101077.66;5082730;28;20033;-61
2022/07/31 09:27:19;;;;;;;11.20;2.40;;;;;;;29.43;49.98;101088.78;5081492;28;20087;-59
2022/07/31 09:29:51;;;;;;;31.80;4.03;;;;;;;29.36;50.58;101093.50;5084310;28;20461;-60
2022/07/31 09:32:44;;;;;;;11.88;2.60;;;;;;;29.27;51.61;101101.41;5083400;28;20151;-60
2022/07/31 09:35:17;;;;;;;7.70;2.35;;;;;;;29.15;52.11;101094.88;5079869;28;20028;-62
2022/07/31 09:37:48;;;;;;;8.48;2.35;;;;;;;29.13;52.24;101107.66;5083228;28;20100;-59
2022/07/31 09:40:35;;;;;;;8.88;2.15;;;;;;;29.09;53.29;101101.22;5081865;28;20148;-60
2022/07/31 09:43:23;;;;;;;21.15;3.28;;;;;;;29.12;54.23;101114.44;5081113;28;20096;-63
2022/07/31 09:46:01;;;;;;;9.90;2.40;;;;;;;29.06;54.77;101113.16;5080044;28;20032;-61
2022/07/31 09:48:29;;;;;;;8.88;2.70;;;;;;;29.06;55.03;101118.75;5073684;28;20036;-61
2022/07/31 09:50:57;;;;;;;8.50;2.70;;;;;;;29.00;55.22;101120.28;5079286;28;20512;-59
2022/07/31 09:53:26;;;;;;;12.90;2.92;;;;;;;28.92;55.71;101119.41;5075176;28;20386;-62
2022/07/31 09:56:11;;;;;;;10.88;2.70;;;;;;;28.84;55.45;101123.25;5080333;28;20040;-61
2022/07/31 09:58:44;;;;;;;7.47;2.45;;;;;;;28.92;55.25;101122.19;5077772;28;20030;-61
2022/07/31 10:01:12;;;;;;;9.55;2.80;;;;;;;28.84;55.81;101120.44;5079348;28;20062;-61
2022/07/31 10:03:40;;;;;;;11.23;2.75;;;;;;;28.75;56.89;101131.13;5080064;28;20144;-61
2022/07/31 10:06:12;;;;;;;11.90;2.70;;;;;;;28.76;56.25;101135.53;5089440;28;20036;-59
2022/07/31 10:08:43;;;;;;;10.40;2.55;;;;;;;28.81;56.76;101129.59;5079085;28;20043;-59
2022/07/31 10:11:25;;;;;;;10.48;2.92;;;;;;;28.71;57.00;101138.63;5078344;28;20036;-62
2022/07/31 10:14:04;;;;;;;10.32;2.70;;;;;;;28.69;56.93;101144.63;5088246;28;20029;-62
2022/07/31 10:16:35;;;;;;;9.20;2.55;;;;;;;28.74;56.90;101143.50;5059813;28;20413;-62
2022/07/31 10:19:11;;;;;;;9.65;2.80;;;;;;;28.72;57.37;101143.03;5080836;28;20036;-63
2022/07/31 10:22:00;;;;;;;6.75;2.22;;;;;;;28.69;56.98;101141.00;5088793;28;20043;-63
2022/07/31 10:24:39;;;;;;;9.43;2.67;;;;;;;28.67;57.29;101140.59;5076566;28;20032;-62
2022/07/31 10:27:06;;;;;;;12.95;2.60;;;;;;;28.65;57.01;101145.75;5096033;28;20040;-59
2022/07/31 10:29:38;;;;;;;10.45;2.50;;;;;;;28.56;57.60;101129.25;5084735;28;20039;-63
2022/07/31 10:32:06;;;;;;;13.13;2.90;;;;;;;28.61;57.28;101147.69;5089121;28;20029;-64
2022/07/31 10:34:37;;;;;;;10.88;2.80;;;;;;;28.55;57.92;101145.25;5082200;28;20027;-61
2022/07/31 10:37:30;;;;;;;8.75;2.45;;;;;;;28.66;57.51;101150.16;5074401;28;20093;-60
2022/07/31 10:40:28;;;;;;;6.93;2.20;;;;;;;28.64;58.05;101153.34;5074384;28;20161;-61
2022/07/31 10:43:34;;;;;;;5.40;2.20;;;;;;;28.63;57.85;101159.31;5078371;28;20036;-64
2022/07/31 10:46:12;;;;;;;6.78;2.40;;;;;;;28.50;58.19;101156.72;5055669;28;20047;-62
2022/07/31 10:48:52;;;;;;;8.45;2.40;;;;;;;28.46;58.48;101152.28;5081399;28;20032;-60
2022/07/31 10:51:49;;;;;;;8.63;2.65;;;;;;;28.41;59.43;101147.81;5088395;28;20127;-62
2022/07/31 10:54:45;;;;;;;10.60;2.60;;;;;;;28.35;59.82;101157.69;5078699;28;20517;-59
2022/07/31 10:57:34;;;;;;;10.25;3.05;;;;;;;28.25;60.52;101158.31;5077880;28;20097;-58
2022/07/31 11:00:21;;;;;;;12.05;3.47;;;;;;;28.19;60.48;101159.81;5076629;28;20082;-59
2022/07/31 11:03:19;;;;;;;19.15;4.20;;;;;;;28.16;61.00;101158.53;5080544;28;20052;-57
2022/07/31 11:06:04;;;;;;;12.02;3.10;;;;;;;28.15;61.78;101168.09;5091148;28;20123;-58
2022/07/31 11:08:51;;;;;;;13.77;2.80;;;;;;;28.13;61.84;101172.47;5074710;28;20094;-61
2022/07/31 11:11:36;;;;;;;10.85;2.90;;;;;;;28.09;61.71;101171.59;5091052;28;20132;-62
2022/07/31 11:14:36;;;;;;;10.52;3.25;;;;;;;28.09;62.03;101177.19;5054733;28;20039;-61
2022/07/31 11:17:35;;;;;;;11.35;3.00;;;;;;;28.04;62.55;101172.72;5067273;28;20052;-61
2022/07/31 11:20:29;;;;;;;11.77;3.33;;;;;;;28.11;62.38;101172.03;5064534;28;20546;-62
2022/07/31 11:23:02;;;;;;;8.20;2.63;;;;;;;27.99;62.10;101168.22;5084033;28;20418;-61
2022/07/31 11:25:30;;;;;;;10.07;2.72;;;;;;;28.00;61.99;101164.25;5074471;28;20457;-59
2022/07/31 11:28:08;;;;;;;9.45;2.50;;;;;;;27.98;62.56;101175.00;5091420;28;20027;-59
2022/07/31 11:30:53;;;;;;;9.20;2.58;;;;;;;28.02;61.98;101177.06;5081691;28;20028;-62
2022/07/31 11:33:31;;;;;;;5.93;2.20;;;;;;;27.94;62.35;101164.94;5081855;28;20087;-62
2022/07/31 11:36:10;;;;;;;7.47;2.65;;;;;;;27.97;62.75;101175.38;5091597;28;20127;-63
2022/07/31 11:38:38;;;;;;;8.88;2.60;;;;;;;27.95;62.15;101174.94;5081722;28;20036;-60
2022/07/31 11:41:05;;;;;;;6.80;2.80;;;;;;;27.92;62.54;101173.72;5083855;28;20025;-60
2022/07/31 11:43:33;;;;;;;9.25;3.60;;;;;;;27.97;61.75;101176.19;5089554;28;20044;-59
2022/07/31 11:46:01;;;;;;;9.40;5.13;;;;;;;27.99;61.54;101182.19;5078177;28;20016;-60
2022/07/31 11:48:31;;;;;;;12.93;5.95;;;;;;;28.03;61.11;101173.91;5089048;28;20470;-61